sensor_id;sensor_type;location;lat;lon;timestamp;temperature;humidity
18160;DHT22;9205;52.032;4.314;2022-08-19T00:02:27;19.30;99.90
18160;DHT22;9205;52.032;4.314;2022-08-19T00:04:54;19.40;99.90
18160;DHT22;9205;52.032;4.314;2022-08-19T00:07:21;19.40;99.90
18160;DHT22;9205;52.032;4.314;2022-08-19T00:09:48;19.30;99.90
18160;DHT22;9205;52.032;4.314;2022-08-19T00:12:16;19.20;99.90
18160;DHT22;9205;52.032;4.314;2022-08-19T00:14:44;19.30;99.90
18160;DHT22;9205;52.032;4.314;2022-08-19T00:17:14;19.30;99.90
18160;DHT22;9205;52.032;4.314;2022-08-19T00:19:42;19.20;99.90
18160;DHT22;9205;52.032;4.314;2022-08-19T00:22:10;19.30;99.90
18160;DHT22;9205;52.032;4.314;2022-08-19T00:24:37;19.30;99.90
18160;DHT22;9205;52.032;4.314;2022-08-19T00:27:07;19.20;99.90
18160;DHT22;9205;52.032;4.314;2022-08-19T00:29:34;19.20;99.90
18160;DHT22;9205;52.032;4.314;2022-08-19T00:32:02;19.10;99.90
18160;DHT22;9205;52.032;4.314;2022-08-19T00:34:30;19.10;99.90
18160;DHT22;9205;52.032;4.314;2022-08-19T00:36:59;19.10;99.90
18160;DHT22;9205;52.032;4.314;2022-08-19T00:39:26;19.20;99.90
18160;DHT22;9205;52.032;4.314;2022-08-19T00:41:53;19.10;99.90
18160;DHT22;9205;52.032;4.314;2022-08-19T00:44:24;19.10;99.90
18160;DHT22;9205;52.032;4.314;2022-08-19T00:46:55;19.10;99.90
18160;DHT22;9205;52.032;4.314;2022-08-19T00:49:27;19.10;99.90
18160;DHT22;9205;52.032;4.314;2022-08-19T00:52:03;19.10;99.90
18160;DHT22;9205;52.032;4.314;2022-08-19T00:54:35;19.20;99.90
18160;DHT22;9205;52.032;4.314;2022-08-19T00:57:07;19.00;99.90
18160;DHT22;9205;52.032;4.314;2022-08-19T00:59:40;19.10;99.90
18160;DHT22;9205;52.032;4.314;2022-08-19T01:02:08;19.10;99.90
18160;DHT22;9205;52.032;4.314;2022-08-19T01:04:36;19.10;99.90
18160;DHT22;9205;52.032;4.314;2022-08-19T01:07:05;19.10;99.90
18160;DHT22;9205;52.032;4.314;2022-08-19T01:09:33;19.10;99.90
18160;DHT22;9205;52.032;4.314;2022-08-19T01:12:01;19.10;99.90
18160;DHT22;9205;52.032;4.314;2022-08-19T01:14:30;19.10;99.90
18160;DHT22;9205;52.032;4.314;2022-08-19T01:16:58;19.10;99.90
18160;DHT22;9205;52.032;4.314;2022-08-19T01:19:29;19.30;99.90
18160;DHT22;9205;52.032;4.314;2022-08-19T01:22:06;19.20;99.90
18160;DHT22;9205;52.032;4.314;2022-08-19T01:24:39;19.40;99.90
18160;DHT22;9205;52.032;4.314;2022-08-19T01:27:08;19.30;99.90
18160;DHT22;9205;52.032;4.314;2022-08-19T01:29:39;19.40;99.90
18160;DHT22;9205;52.032;4.314;2022-08-19T01:32:10;19.30;99.90
18160;DHT22;9205;52.032;4.314;2022-08-19T01:34:40;19.50;99.90
18160;DHT22;9205;52.032;4.314;2022-08-19T01:37:14;19.50;99.90
18160;DHT22;9205;52.032;4.314;2022-08-19T01:39:49;19.50;99.90
18160;DHT22;9205;52.032;4.314;2022-08-19T01:42:17;19.50;99.90
18160;DHT22;9205;52.032;4.314;2022-08-19T01:44:45;19.40;99.90
18160;DHT22;9205;52.032;4.314;2022-08-19T01:47:12;19.30;99.90
18160;DHT22;9205;52.032;4.314;2022-08-19T01:49:39;19.30;99.90
18160;DHT22;9205;52.032;4.314;2022-08-19T01:52:06;19.30;99.90
18160;DHT22;9205;52.032;4.314;2022-08-19T01:54:52;19.40;99.90
18160;DHT22;9205;52.032;4.314;2022-08-19T01:57:20;19.40;99.90
18160;DHT22;9205;52.032;4.314;2022-08-19T01:59:48;19.40;99.90
18160;DHT22;9205;52.032;4.314;2022-08-19T02:02:16;19.40;99.90
18160;DHT22;9205;52.032;4.314;2022-08-19T02:04:43;19.50;99.90
18160;DHT22;9205;52.032;4.314;2022-08-19T02:07:11;19.40;99.90
18160;DHT22;9205;52.032;4.314;2022-08-19T02:09:39;19.50;99.90
18160;DHT22;9205;52.032;4.314;2022-08-19T02:12:08;19.40;99.90
18160;DHT22;9205;52.032;4.314;2022-08-19T02:14:45;19.30;99.90
18160;DHT22;9205;52.032;4.314;2022-08-19T02:17:13;19.30;99.90
18160;DHT22;9205;52.032;4.314;2022-08-19T02:19:41;19.50;99.90
18160;DHT22;9205;52.032;4.314;2022-08-19T02:22:08;19.40;99.90
18160;DHT22;9205;52.032;4.314;2022-08-19T02:24:35;19.40;99.90
18160;DHT22;9205;52.032;4.314;2022-08-19T02:27:08;19.40;99.90
18160;DHT22;9205;52.032;4.314;2022-08-19T02:29:35;19.40;99.90
18160;DHT22;9205;52.032;4.314;2022-08-19T02:32:03;19.40;99.90
18160;DHT22;9205;52.032;4.314;2022-08-19T02:34:30;19.40;99.90
18160;DHT22;9205;52.032;4.314;2022-08-19T02:36:58;19.30;99.90
18160;DHT22;9205;52.032;4.314;2022-08-19T02:39:25;19.50;99.90
18160;DHT22;9205;52.032;4.314;2022-08-19T02:41:52;19.30;99.90
18160;DHT22;9205;52.032;4.314;2022-08-19T02:44:20;19.40;99.90
18160;DHT22;9205;52.032;4.314;2022-08-19T02:46:50;19.50;99.90
18160;DHT22;9205;52.032;4.314;2022-08-19T02:49:18;19.30;99.90
18160;DHT22;9205;52.032;4.314;2022-08-19T02:51:46;19.30;99.90
18160;DHT22;9205;52.032;4.314;2022-08-19T02:54:14;19.30;99.90
18160;DHT22;9205;52.032;4.314;2022-08-19T02:56:43;19.40;99.90
18160;DHT22;9205;52.032;4.314;2022-08-19T02:59:11;19.40;99.90
18160;DHT22;9205;52.032;4.314;2022-08-19T03:01:43;19.50;99.90
18160;DHT22;9205;52.032;4.314;2022-08-19T03:04:13;19.40;99.90
18160;DHT22;9205;52.032;4.314;2022-08-19T03:06:45;19.30;99.90
18160;DHT22;9205;52.032;4.314;2022-08-19T03:09:18;19.30;99.90
18160;DHT22;9205;52.032;4.314;2022-08-19T03:11:50;19.30;99.90
18160;DHT22;9205;52.032;4.314;2022-08-19T03:14:17;19.30;99.90
18160;DHT22;9205;52.032;4.314;2022-08-19T03:16:48;19.30;99.90
18160;DHT22;9205;52.032;4.314;2022-08-19T03:19:18;19.30;99.90
18160;DHT22;9205;52.032;4.314;2022-08-19T03:21:49;19.30;99.90
18160;DHT22;9205;52.032;4.314;2022-08-19T03:24:18;19.30;99.90
18160;DHT22;9205;52.032;4.314;2022-08-19T03:26:50;19.30;99.90
18160;DHT22;9205;52.032;4.314;2022-08-19T03:29:25;19.20;99.90
18160;DHT22;9205;52.032;4.314;2022-08-19T03:31:55;19.40;99.90
18160;DHT22;9205;52.032;4.314;2022-08-19T03:34:24;19.30;99.90
18160;DHT22;9205;52.032;4.314;2022-08-19T03:36:53;19.40;99.90
18160;DHT22;9205;52.032;4.314;2022-08-19T03:39:23;19.30;99.90
18160;DHT22;9205;52.032;4.314;2022-08-19T03:41:53;19.20;99.90
18160;DHT22;9205;52.032;4.314;2022-08-19T03:44:23;19.40;99.90
18160;DHT22;9205;52.032;4.314;2022-08-19T03:46:52;19.20;99.90
18160;DHT22;9205;52.032;4.314;2022-08-19T03:49:24;19.30;99.90
18160;DHT22;9205;52.032;4.314;2022-08-19T03:51:54;19.30;99.90
18160;DHT22;9205;52.032;4.314;2022-08-19T03:54:24;19.30;99.90
18160;DHT22;9205;52.032;4.314;2022-08-19T03:56:53;19.30;99.90
18160;DHT22;9205;52.032;4.314;2022-08-19T03:59:24;19.20;99.90
18160;DHT22;9205;52.032;4.314;2022-08-19T04:02:00;19.30;99.90
18160;DHT22;9205;52.032;4.314;2022-08-19T04:04:30;19.30;99.90
18160;DHT22;9205;52.032;4.314;2022-08-19T04:06:57;19.30;99.90
18160;DHT22;9205;52.032;4.314;2022-08-19T04:09:25;19.30;99.90
18160;DHT22;9205;52.032;4.314;2022-08-19T04:11:55;19.40;99.90
18160;DHT22;9205;52.032;4.314;2022-08-19T04:14:26;19.30;99.90
18160;DHT22;9205;52.032;4.314;2022-08-19T04:16:56;19.30;99.90
18160;DHT22;9205;52.032;4.314;2022-08-19T04:19:24;19.30;99.90
18160;DHT22;9205;52.032;4.314;2022-08-19T04:21:54;19.30;99.90
18160;DHT22;9205;52.032;4.314;2022-08-19T04:24:22;19.40;99.90
18160;DHT22;9205;52.032;4.314;2022-08-19T04:26:50;19.30;99.90
18160;DHT22;9205;52.032;4.314;2022-08-19T04:29:20;19.40;99.90
18160;DHT22;9205;52.032;4.314;2022-08-19T04:31:51;19.30;99.90
18160;DHT22;9205;52.032;4.314;2022-08-19T04:34:21;19.40;99.90
18160;DHT22;9205;52.032;4.314;2022-08-19T04:36:53;19.40;99.90
18160;DHT22;9205;52.032;4.314;2022-08-19T04:39:24;19.40;99.90
18160;DHT22;9205;52.032;4.314;2022-08-19T04:42:14;19.40;99.90
18160;DHT22;9205;52.032;4.314;2022-08-19T04:45:00;19.60;99.90
18160;DHT22;9205;52.032;4.314;2022-08-19T04:47:28;19.50;99.90
18160;DHT22;9205;52.032;4.314;2022-08-19T04:49:58;19.50;99.90
18160;DHT22;9205;52.032;4.314;2022-08-19T04:52:27;19.40;99.90
18160;DHT22;9205;52.032;4.314;2022-08-19T04:54:54;19.60;99.90
18160;DHT22;9205;52.032;4.314;2022-08-19T04:57:21;19.70;99.90
18160;DHT22;9205;52.032;4.314;2022-08-19T04:59:49;19.50;99.90
18160;DHT22;9205;52.032;4.314;2022-08-19T05:02:20;19.70;99.90
18160;DHT22;9205;52.032;4.314;2022-08-19T05:04:48;19.70;99.90
18160;DHT22;9205;52.032;4.314;2022-08-19T05:07:16;19.60;99.90
18160;DHT22;9205;52.032;4.314;2022-08-19T05:09:44;19.50;99.90
18160;DHT22;9205;52.032;4.314;2022-08-19T05:12:11;19.70;99.90
18160;DHT22;9205;52.032;4.314;2022-08-19T05:14:39;19.60;99.90
18160;DHT22;9205;52.032;4.314;2022-08-19T05:17:06;19.70;99.90
18160;DHT22;9205;52.032;4.314;2022-08-19T05:19:33;19.60;99.90
18160;DHT22;9205;52.032;4.314;2022-08-19T05:22:18;19.60;99.90
18160;DHT22;9205;52.032;4.314;2022-08-19T05:25:06;19.80;99.90
18160;DHT22;9205;52.032;4.314;2022-08-19T05:27:37;19.70;99.90
18160;DHT22;9205;52.032;4.314;2022-08-19T05:30:06;19.70;99.90
18160;DHT22;9205;52.032;4.314;2022-08-19T05:32:34;19.70;99.90
18160;DHT22;9205;52.032;4.314;2022-08-19T05:35:02;19.80;99.90
18160;DHT22;9205;52.032;4.314;2022-08-19T05:37:30;19.80;99.90
18160;DHT22;9205;52.032;4.314;2022-08-19T05:39:57;19.80;99.90
18160;DHT22;9205;52.032;4.314;2022-08-19T05:42:25;19.90;99.90
18160;DHT22;9205;52.032;4.314;2022-08-19T05:44:53;19.80;99.90
18160;DHT22;9205;52.032;4.314;2022-08-19T05:47:37;19.90;99.90
18160;DHT22;9205;52.032;4.314;2022-08-19T05:50:05;19.80;99.90
18160;DHT22;9205;52.032;4.314;2022-08-19T05:52:32;19.80;99.90
18160;DHT22;9205;52.032;4.314;2022-08-19T05:55:04;20.00;99.90
18160;DHT22;9205;52.032;4.314;2022-08-19T05:57:36;19.70;99.90
18160;DHT22;9205;52.032;4.314;2022-08-19T06:00:05;19.80;99.90
18160;DHT22;9205;52.032;4.314;2022-08-19T06:02:37;19.80;99.90
18160;DHT22;9205;52.032;4.314;2022-08-19T06:05:07;20.00;99.90
18160;DHT22;9205;52.032;4.314;2022-08-19T06:07:35;19.80;99.90
18160;DHT22;9205;52.032;4.314;2022-08-19T06:10:06;19.90;99.90
18160;DHT22;9205;52.032;4.314;2022-08-19T06:12:37;20.00;99.90
18160;DHT22;9205;52.032;4.314;2022-08-19T06:15:07;19.90;99.90
18160;DHT22;9205;52.032;4.314;2022-08-19T06:17:36;20.10;99.90
18160;DHT22;9205;52.032;4.314;2022-08-19T06:20:05;20.10;99.90
18160;DHT22;9205;52.032;4.314;2022-08-19T06:22:37;20.00;99.90
18160;DHT22;9205;52.032;4.314;2022-08-19T06:25:06;20.00;99.90
18160;DHT22;9205;52.032;4.314;2022-08-19T06:27:36;20.20;99.90
18160;DHT22;9205;52.032;4.314;2022-08-19T06:30:05;20.20;99.90
18160;DHT22;9205;52.032;4.314;2022-08-19T06:32:33;20.30;99.90
18160;DHT22;9205;52.032;4.314;2022-08-19T06:35:00;20.30;99.90
18160;DHT22;9205;52.032;4.314;2022-08-19T06:37:27;20.40;99.90
18160;DHT22;9205;52.032;4.314;2022-08-19T06:39:54;20.60;99.90
18160;DHT22;9205;52.032;4.314;2022-08-19T06:42:53;20.60;99.90
18160;DHT22;9205;52.032;4.314;2022-08-19T06:45:11;20.50;99.90
18160;DHT22;9205;52.032;4.314;2022-08-19T06:48:09;20.50;99.90
18160;DHT22;9205;52.032;4.314;2022-08-19T06:50:36;20.70;99.90
18160;DHT22;9205;52.032;4.314;2022-08-19T06:53:03;20.60;99.90
18160;DHT22;9205;52.032;4.314;2022-08-19T06:55:31;20.80;99.90
18160;DHT22;9205;52.032;4.314;2022-08-19T06:58:03;20.70;99.90
18160;DHT22;9205;52.032;4.314;2022-08-19T07:00:31;20.80;99.90
18160;DHT22;9205;52.032;4.314;2022-08-19T07:02:59;20.80;99.90
18160;DHT22;9205;52.032;4.314;2022-08-19T07:05:27;20.80;99.90
18160;DHT22;9205;52.032;4.314;2022-08-19T07:07:54;20.70;99.90
18160;DHT22;9205;52.032;4.314;2022-08-19T07:10:22;20.90;99.90
18160;DHT22;9205;52.032;4.314;2022-08-19T07:12:49;20.90;99.90
18160;DHT22;9205;52.032;4.314;2022-08-19T07:15:18;21.00;99.90
18160;DHT22;9205;52.032;4.314;2022-08-19T07:17:46;20.80;99.90
18160;DHT22;9205;52.032;4.314;2022-08-19T07:20:14;21.10;99.90
18160;DHT22;9205;52.032;4.314;2022-08-19T07:22:41;21.10;99.90
18160;DHT22;9205;52.032;4.314;2022-08-19T07:25:09;21.10;99.90
18160;DHT22;9205;52.032;4.314;2022-08-19T07:27:38;21.20;99.90
18160;DHT22;9205;52.032;4.314;2022-08-19T07:30:07;21.00;99.90
18160;DHT22;9205;52.032;4.314;2022-08-19T07:32:40;21.20;99.90
18160;DHT22;9205;52.032;4.314;2022-08-19T07:35:11;21.10;99.90
18160;DHT22;9205;52.032;4.314;2022-08-19T07:37:40;21.40;99.90
18160;DHT22;9205;52.032;4.314;2022-08-19T07:40:10;21.30;99.90
18160;DHT22;9205;52.032;4.314;2022-08-19T07:42:38;21.30;99.90
18160;DHT22;9205;52.032;4.314;2022-08-19T07:45:07;21.20;99.90
18160;DHT22;9205;52.032;4.314;2022-08-19T07:47:36;21.40;99.90
18160;DHT22;9205;52.032;4.314;2022-08-19T07:50:08;21.20;99.90
18160;DHT22;9205;52.032;4.314;2022-08-19T07:52:38;21.20;99.90
18160;DHT22;9205;52.032;4.314;2022-08-19T07:55:07;21.30;99.90
18160;DHT22;9205;52.032;4.314;2022-08-19T07:57:35;21.40;99.90
18160;DHT22;9205;52.032;4.314;2022-08-19T08:00:06;21.40;99.90
18160;DHT22;9205;52.032;4.314;2022-08-19T08:02:37;21.30;99.90
18160;DHT22;9205;52.032;4.314;2022-08-19T08:05:10;21.40;99.90
18160;DHT22;9205;52.032;4.314;2022-08-19T08:07:55;21.60;99.90
18160;DHT22;9205;52.032;4.314;2022-08-19T08:10:40;21.70;99.90
18160;DHT22;9205;52.032;4.314;2022-08-19T08:13:07;21.70;99.90
18160;DHT22;9205;52.032;4.314;2022-08-19T08:15:34;21.90;99.90
18160;DHT22;9205;52.032;4.314;2022-08-19T08:18:04;21.90;99.90
18160;DHT22;9205;52.032;4.314;2022-08-19T08:20:33;22.10;99.90
18160;DHT22;9205;52.032;4.314;2022-08-19T08:23:00;22.00;99.90
18160;DHT22;9205;52.032;4.314;2022-08-19T08:25:45;22.00;99.90
18160;DHT22;9205;52.032;4.314;2022-08-19T08:28:14;22.00;99.90
18160;DHT22;9205;52.032;4.314;2022-08-19T08:30:41;22.00;99.90
18160;DHT22;9205;52.032;4.314;2022-08-19T08:33:09;22.00;99.90
18160;DHT22;9205;52.032;4.314;2022-08-19T08:35:40;22.20;99.90
18160;DHT22;9205;52.032;4.314;2022-08-19T08:38:08;22.00;99.90
18160;DHT22;9205;52.032;4.314;2022-08-19T08:40:43;22.10;99.90
18160;DHT22;9205;52.032;4.314;2022-08-19T08:43:22;22.30;99.90
18160;DHT22;9205;52.032;4.314;2022-08-19T08:45:59;22.30;99.90
18160;DHT22;9205;52.032;4.314;2022-08-19T08:48:38;22.40;99.90
18160;DHT22;9205;52.032;4.314;2022-08-19T08:51:17;22.50;99.90
18160;DHT22;9205;52.032;4.314;2022-08-19T08:53:51;22.40;99.90
18160;DHT22;9205;52.032;4.314;2022-08-19T08:56:20;22.60;99.90
18160;DHT22;9205;52.032;4.314;2022-08-19T08:58:54;22.40;99.90
18160;DHT22;9205;52.032;4.314;2022-08-19T09:01:25;22.40;99.90
18160;DHT22;9205;52.032;4.314;2022-08-19T09:03:56;22.30;99.90
18160;DHT22;9205;52.032;4.314;2022-08-19T09:06:35;22.20;99.90
18160;DHT22;9205;52.032;4.314;2022-08-19T09:09:13;22.20;99.90
18160;DHT22;9205;52.032;4.314;2022-08-19T09:11:57;22.20;99.90
18160;DHT22;9205;52.032;4.314;2022-08-19T09:14:35;22.10;99.90
18160;DHT22;9205;52.032;4.314;2022-08-19T09:17:08;22.10;99.90
18160;DHT22;9205;52.032;4.314;2022-08-19T09:19:48;22.30;99.90
18160;DHT22;9205;52.032;4.314;2022-08-19T09:22:19;22.30;99.90
18160;DHT22;9205;52.032;4.314;2022-08-19T09:24:49;22.20;99.90
18160;DHT22;9205;52.032;4.314;2022-08-19T09:27:19;22.40;99.90
18160;DHT22;9205;52.032;4.314;2022-08-19T09:29:49;22.60;99.90
18160;DHT22;9205;52.032;4.314;2022-08-19T09:32:17;22.50;99.90
18160;DHT22;9205;52.032;4.314;2022-08-19T09:34:44;22.50;99.90
18160;DHT22;9205;52.032;4.314;2022-08-19T09:37:12;22.60;99.90
18160;DHT22;9205;52.032;4.314;2022-08-19T09:39:41;22.80;99.90
18160;DHT22;9205;52.032;4.314;2022-08-19T09:42:10;22.80;99.90
18160;DHT22;9205;52.032;4.314;2022-08-19T09:44:39;22.70;99.90
18160;DHT22;9205;52.032;4.314;2022-08-19T09:47:08;22.80;99.90
18160;DHT22;9205;52.032;4.314;2022-08-19T09:49:37;22.60;99.90
18160;DHT22;9205;52.032;4.314;2022-08-19T09:52:05;22.70;99.90
18160;DHT22;9205;52.032;4.314;2022-08-19T09:54:33;22.70;99.90
18160;DHT22;9205;52.032;4.314;2022-08-19T09:57:03;22.60;99.90
18160;DHT22;9205;52.032;4.314;2022-08-19T09:59:30;22.70;99.90
18160;DHT22;9205;52.032;4.314;2022-08-19T10:01:57;22.70;99.90
18160;DHT22;9205;52.032;4.314;2022-08-19T10:04:25;22.80;99.90
18160;DHT22;9205;52.032;4.314;2022-08-19T10:07:12;22.80;99.90
18160;DHT22;9205;52.032;4.314;2022-08-19T10:09:40;22.90;99.90
18160;DHT22;9205;52.032;4.314;2022-08-19T10:12:08;22.80;99.90
18160;DHT22;9205;52.032;4.314;2022-08-19T10:14:37;22.80;99.90
18160;DHT22;9205;52.032;4.314;2022-08-19T10:17:05;22.70;99.90
18160;DHT22;9205;52.032;4.314;2022-08-19T10:19:32;22.70;99.90
18160;DHT22;9205;52.032;4.314;2022-08-19T10:22:05;22.60;99.90
18160;DHT22;9205;52.032;4.314;2022-08-19T10:24:33;22.60;99.90
18160;DHT22;9205;52.032;4.314;2022-08-19T10:27:01;22.60;99.90
18160;DHT22;9205;52.032;4.314;2022-08-19T10:29:31;22.50;99.90
18160;DHT22;9205;52.032;4.314;2022-08-19T10:32:00;22.50;99.90
18160;DHT22;9205;52.032;4.314;2022-08-19T10:34:30;22.50;99.90
18160;DHT22;9205;52.032;4.314;2022-08-19T10:36:58;22.40;99.90
18160;DHT22;9205;52.032;4.314;2022-08-19T10:39:26;22.30;99.90
18160;DHT22;9205;52.032;4.314;2022-08-19T10:41:55;22.40;99.90
18160;DHT22;9205;52.032;4.314;2022-08-19T10:44:25;22.40;99.90
18160;DHT22;9205;52.032;4.314;2022-08-19T10:46:57;22.60;99.90
18160;DHT22;9205;52.032;4.314;2022-08-19T10:49:24;22.70;99.90
18160;DHT22;9205;52.032;4.314;2022-08-19T10:51:51;22.80;99.90
18160;DHT22;9205;52.032;4.314;2022-08-19T10:54:36;22.70;99.90
18160;DHT22;9205;52.032;4.314;2022-08-19T10:57:22;22.70;99.90
18160;DHT22;9205;52.032;4.314;2022-08-19T10:59:55;22.40;99.90
18160;DHT22;9205;52.032;4.314;2022-08-19T11:02:24;22.50;99.90
18160;DHT22;9205;52.032;4.314;2022-08-19T11:04:51;22.50;99.90
18160;DHT22;9205;52.032;4.314;2022-08-19T11:07:19;22.30;99.90
18160;DHT22;9205;52.032;4.314;2022-08-19T11:09:46;22.50;99.90
18160;DHT22;9205;52.032;4.314;2022-08-19T11:12:14;22.40;99.90
18160;DHT22;9205;52.032;4.314;2022-08-19T11:14:42;22.40;99.90
18160;DHT22;9205;52.032;4.314;2022-08-19T11:17:09;22.40;99.90
18160;DHT22;9205;52.032;4.314;2022-08-19T11:19:41;22.10;99.90
18160;DHT22;9205;52.032;4.314;2022-08-19T11:22:10;22.20;99.90
18160;DHT22;9205;52.032;4.314;2022-08-19T11:24:37;22.00;99.90
18160;DHT22;9205;52.032;4.314;2022-08-19T11:27:07;22.20;99.90
18160;DHT22;9205;52.032;4.314;2022-08-19T11:29:38;22.10;99.90
18160;DHT22;9205;52.032;4.314;2022-08-19T11:32:07;22.30;99.90
18160;DHT22;9205;52.032;4.314;2022-08-19T11:34:36;22.30;99.90
18160;DHT22;9205;52.032;4.314;2022-08-19T11:37:06;22.20;99.90
18160;DHT22;9205;52.032;4.314;2022-08-19T11:39:35;22.40;99.90
18160;DHT22;9205;52.032;4.314;2022-08-19T11:42:06;22.30;99.90
18160;DHT22;9205;52.032;4.314;2022-08-19T11:44:48;22.50;99.90
18160;DHT22;9205;52.032;4.314;2022-08-19T11:47:15;22.30;99.90
18160;DHT22;9205;52.032;4.314;2022-08-19T11:49:43;22.20;99.90
18160;DHT22;9205;52.032;4.314;2022-08-19T11:52:11;22.30;99.90
18160;DHT22;9205;52.032;4.314;2022-08-19T11:54:39;22.30;99.90
18160;DHT22;9205;52.032;4.314;2022-08-19T11:57:08;22.40;99.90
18160;DHT22;9205;52.032;4.314;2022-08-19T11:59:36;22.50;99.90
18160;DHT22;9205;52.032;4.314;2022-08-19T12:02:03;22.40;99.90
18160;DHT22;9205;52.032;4.314;2022-08-19T12:04:30;22.50;99.90
18160;DHT22;9205;52.032;4.314;2022-08-19T12:06:57;22.20;99.90
18160;DHT22;9205;52.032;4.314;2022-08-19T12:09:26;22.30;99.90
18160;DHT22;9205;52.032;4.314;2022-08-19T12:11:53;22.60;99.90
18160;DHT22;9205;52.032;4.314;2022-08-19T12:14:22;22.80;99.90
18160;DHT22;9205;52.032;4.314;2022-08-19T12:16:49;23.00;99.90
18160;DHT22;9205;52.032;4.314;2022-08-19T12:19:17;23.10;99.90
18160;DHT22;9205;52.032;4.314;2022-08-19T12:21:44;22.90;99.90
18160;DHT22;9205;52.032;4.314;2022-08-19T12:24:11;23.10;99.90
18160;DHT22;9205;52.032;4.314;2022-08-19T12:26:40;23.00;99.90
18160;DHT22;9205;52.032;4.314;2022-08-19T12:29:08;23.10;99.90
18160;DHT22;9205;52.032;4.314;2022-08-19T12:31:35;23.00;99.90
18160;DHT22;9205;52.032;4.314;2022-08-19T12:34:03;23.00;99.90
18160;DHT22;9205;52.032;4.314;2022-08-19T12:36:30;23.10;99.90
18160;DHT22;9205;52.032;4.314;2022-08-19T12:38:58;23.20;99.90
18160;DHT22;9205;52.032;4.314;2022-08-19T12:41:26;23.30;99.90
18160;DHT22;9205;52.032;4.314;2022-08-19T12:44:01;23.30;99.90
18160;DHT22;9205;52.032;4.314;2022-08-19T12:46:28;23.40;99.90
18160;DHT22;9205;52.032;4.314;2022-08-19T12:48:57;23.60;99.90
18160;DHT22;9205;52.032;4.314;2022-08-19T12:51:24;23.70;99.90
18160;DHT22;9205;52.032;4.314;2022-08-19T12:53:52;23.80;99.90
18160;DHT22;9205;52.032;4.314;2022-08-19T12:56:20;23.90;99.90
18160;DHT22;9205;52.032;4.314;2022-08-19T12:58:48;24.30;99.90
18160;DHT22;9205;52.032;4.314;2022-08-19T13:01:17;24.50;99.90
18160;DHT22;9205;52.032;4.314;2022-08-19T13:03:46;24.40;99.90
18160;DHT22;9205;52.032;4.314;2022-08-19T13:06:13;24.10;99.90
18160;DHT22;9205;52.032;4.314;2022-08-19T13:08:41;23.90;99.90
18160;DHT22;9205;52.032;4.314;2022-08-19T13:11:10;24.00;99.90
18160;DHT22;9205;52.032;4.314;2022-08-19T13:13:41;23.90;99.90
18160;DHT22;9205;52.032;4.314;2022-08-19T13:16:10;24.00;99.90
18160;DHT22;9205;52.032;4.314;2022-08-19T13:18:41;24.10;99.90
18160;DHT22;9205;52.032;4.314;2022-08-19T13:21:12;24.00;99.90
18160;DHT22;9205;52.032;4.314;2022-08-19T13:23:40;23.90;99.90
18160;DHT22;9205;52.032;4.314;2022-08-19T13:26:09;23.70;99.90
18160;DHT22;9205;52.032;4.314;2022-08-19T13:28:39;23.60;99.90
18160;DHT22;9205;52.032;4.314;2022-08-19T13:31:27;23.80;99.90
18160;DHT22;9205;52.032;4.314;2022-08-19T13:34:16;23.60;99.90
18160;DHT22;9205;52.032;4.314;2022-08-19T13:36:44;23.60;99.90
18160;DHT22;9205;52.032;4.314;2022-08-19T13:39:12;23.70;99.90
18160;DHT22;9205;52.032;4.314;2022-08-19T13:41:44;23.70;99.90
18160;DHT22;9205;52.032;4.314;2022-08-19T13:44:13;23.60;99.90
18160;DHT22;9205;52.032;4.314;2022-08-19T13:46:43;23.70;99.90
18160;DHT22;9205;52.032;4.314;2022-08-19T13:49:11;23.70;99.90
18160;DHT22;9205;52.032;4.314;2022-08-19T13:51:42;23.70;99.90
18160;DHT22;9205;52.032;4.314;2022-08-19T13:54:11;23.80;99.90
18160;DHT22;9205;52.032;4.314;2022-08-19T13:56:41;23.80;99.90
18160;DHT22;9205;52.032;4.314;2022-08-19T13:59:10;23.90;99.90
18160;DHT22;9205;52.032;4.314;2022-08-19T14:01:37;23.80;99.90
18160;DHT22;9205;52.032;4.314;2022-08-19T14:04:06;23.90;99.90
18160;DHT22;9205;52.032;4.314;2022-08-19T14:06:34;24.10;99.90
18160;DHT22;9205;52.032;4.314;2022-08-19T14:09:03;24.00;99.90
18160;DHT22;9205;52.032;4.314;2022-08-19T14:11:30;23.90;99.90
18160;DHT22;9205;52.032;4.314;2022-08-19T14:13:58;23.60;99.90
18160;DHT22;9205;52.032;4.314;2022-08-19T14:16:25;23.90;99.90
18160;DHT22;9205;52.032;4.314;2022-08-19T14:18:52;23.90;99.90
18160;DHT22;9205;52.032;4.314;2022-08-19T14:22:03;23.80;99.90
18160;DHT22;9205;52.032;4.314;2022-08-19T14:24:24;23.80;99.90
18160;DHT22;9205;52.032;4.314;2022-08-19T14:26:52;23.70;99.90
18160;DHT22;9205;52.032;4.314;2022-08-19T14:29:20;23.70;99.90
18160;DHT22;9205;52.032;4.314;2022-08-19T14:31:47;23.50;99.90
18160;DHT22;9205;52.032;4.314;2022-08-19T14:34:14;23.40;99.90
18160;DHT22;9205;52.032;4.314;2022-08-19T14:36:43;23.70;99.90
18160;DHT22;9205;52.032;4.314;2022-08-19T14:39:10;23.40;99.90
18160;DHT22;9205;52.032;4.314;2022-08-19T14:41:40;23.30;99.90
18160;DHT22;9205;52.032;4.314;2022-08-19T14:44:08;23.50;99.90
18160;DHT22;9205;52.032;4.314;2022-08-19T14:46:38;23.30;99.90
18160;DHT22;9205;52.032;4.314;2022-08-19T14:49:07;23.40;99.90
18160;DHT22;9205;52.032;4.314;2022-08-19T14:51:34;23.30;99.90
18160;DHT22;9205;52.032;4.314;2022-08-19T14:54:01;22.90;99.90
18160;DHT22;9205;52.032;4.314;2022-08-19T14:56:29;22.90;99.90
18160;DHT22;9205;52.032;4.314;2022-08-19T14:58:58;22.70;99.90
18160;DHT22;9205;52.032;4.314;2022-08-19T15:01:27;22.60;99.90
18160;DHT22;9205;52.032;4.314;2022-08-19T15:03:58;22.50;99.90
18160;DHT22;9205;52.032;4.314;2022-08-19T15:06:26;22.60;99.90
18160;DHT22;9205;52.032;4.314;2022-08-19T15:08:57;22.50;99.90
18160;DHT22;9205;52.032;4.314;2022-08-19T15:11:27;22.30;99.90
18160;DHT22;9205;52.032;4.314;2022-08-19T15:13:55;22.30;99.90
18160;DHT22;9205;52.032;4.314;2022-08-19T15:16:25;22.20;99.90
18160;DHT22;9205;52.032;4.314;2022-08-19T15:18:55;22.10;99.90
18160;DHT22;9205;52.032;4.314;2022-08-19T15:21:25;22.10;99.90
18160;DHT22;9205;52.032;4.314;2022-08-19T15:23:55;22.00;99.90
18160;DHT22;9205;52.032;4.314;2022-08-19T15:26:24;22.10;99.90
18160;DHT22;9205;52.032;4.314;2022-08-19T15:28:53;22.10;99.90
18160;DHT22;9205;52.032;4.314;2022-08-19T15:31:21;21.80;99.90
18160;DHT22;9205;52.032;4.314;2022-08-19T15:33:50;22.10;99.90
18160;DHT22;9205;52.032;4.314;2022-08-19T15:36:17;22.00;99.90
18160;DHT22;9205;52.032;4.314;2022-08-19T15:38:44;22.00;99.90
18160;DHT22;9205;52.032;4.314;2022-08-19T15:41:17;22.00;99.90
18160;DHT22;9205;52.032;4.314;2022-08-19T15:43:56;22.10;99.90
18160;DHT22;9205;52.032;4.314;2022-08-19T15:46:30;22.30;99.90
18160;DHT22;9205;52.032;4.314;2022-08-19T15:49:06;22.30;99.90
18160;DHT22;9205;52.032;4.314;2022-08-19T15:51:37;22.10;99.90
18160;DHT22;9205;52.032;4.314;2022-08-19T15:54:11;22.30;99.90
18160;DHT22;9205;52.032;4.314;2022-08-19T15:56:42;22.50;99.90
18160;DHT22;9205;52.032;4.314;2022-08-19T15:59:26;22.50;99.90
18160;DHT22;9205;52.032;4.314;2022-08-19T16:02:12;22.50;99.90
18160;DHT22;9205;52.032;4.314;2022-08-19T16:05:06;22.60;99.90